This is the latest recevied weather packets stored in our database for station/object PY5KT-13. If no packets are shown the sender has not sent any weather packets the latest 10 day(s).
| Time | Temp. | Humidity | Pressure | Rain* | Wind** | Luminosity | Snow |
|---|---|---|---|---|---|---|---|
| 1778185769 | 23.33° C | 64% | 1013 hPa | 0 mm | - | 45 W/m² | - |
| 1778185467 | 23.33° C | 63% | 1013 hPa | 0 mm | - | 47 W/m² | - |
| 1778185165 | 23.89° C | 62% | 1013 hPa | 0 mm | - | 51 W/m² | - |
| 1778184864 | 23.89° C | 60% | 1013 hPa | 0 mm | - | 53 W/m² | - |
| 1778184562 | 24.44° C | 58% | 1013 hPa | 0 mm | - | 70 W/m² | - |
| 1778184260 | 25° C | 57% | 1013 hPa | 0 mm | - | 67 W/m² | - |
| 1778183958 | 24.44° C | 57% | 1013 hPa | 0 mm | - | 91 W/m² | - |
| 1778183657 | 25° C | 56% | 1013 hPa | 0 mm | - | 84 W/m² | - |
| 1778183355 | 26.11° C | 54% | 1013 hPa | 0 mm | - | 79 W/m² | - |
| 1778183053 | 25° C | 56% | 1012.9 hPa | 0 mm | - | 122 W/m² | - |
| 1778182751 | 25° C | 56% | 1013 hPa | 0 mm | - | 163 W/m² | - |
| 1778182450 | 25° C | 55% | 1013 hPa | 0 mm | - | 143 W/m² | - |
| 1778182147 | 25° C | 53% | 1013.1 hPa | 0 mm | - | 109 W/m² | - |
| 1778181846 | 25° C | 53% | 1013 hPa | 0 mm | - | 91 W/m² | - |
| 1778181543 | 25.56° C | 53% | 1013 hPa | 0 mm | - | 111 W/m² | - |
| 1778181242 | 25.56° C | 53% | 1013.1 hPa | 0 mm | - | 106 W/m² | - |
| 1778180940 | 25.56° C | 52% | 1013.1 hPa | 0 mm | - | 93 W/m² | - |
| 1778180639 | 26.67° C | 48% | 1013.2 hPa | 0 mm | - | 87 W/m² | - |
| 1778180337 | 27.22° C | 47% | 1013.2 hPa | 0 mm | - | 106 W/m² | - |
| 1778180035 | 27.78° C | 45% | 1013.3 hPa | 0 mm | - | 163 W/m² | - |
| 1778179733 | 27.78° C | 46% | 1013.4 hPa | 0 mm | - | 228 W/m² | - |
| 1778179431 | 27.22° C | 46% | 1013.4 hPa | 0 mm | - | 303 W/m² | - |
| 1778179129 | 26.67° C | 47% | 1013.3 hPa | 0 mm | - | 344 W/m² | - |
| 1778178828 | 27.22° C | 46% | 1013.4 hPa | 0 mm | - | 254 W/m² | - |
| 1778178526 | 27.78° C | 46% | 1013.4 hPa | 0 mm | - | 372 W/m² | - |
* Rain latest hour (hover to see other rain measurements)
** Current wind speed in m/s (hover to see current wind gust speed)